sensor_id;sensor_type;location;lat;lon;timestamp;temperature;humidity
23683;DHT22;24897;53.514;10.482;2023-02-28T00:02:19;2.00;99.90
23683;DHT22;24897;53.514;10.482;2023-02-28T00:05:04;2.00;99.90
23683;DHT22;24897;53.514;10.482;2023-02-28T00:07:48;1.90;99.90
23683;DHT22;24897;53.514;10.482;2023-02-28T00:10:33;1.80;99.90
23683;DHT22;24897;53.514;10.482;2023-02-28T00:13:17;1.80;99.90
23683;DHT22;24897;53.514;10.482;2023-02-28T00:16:04;1.70;99.90
23683;DHT22;24897;53.514;10.482;2023-02-28T00:18:49;1.60;99.90
23683;DHT22;24897;53.514;10.482;2023-02-28T00:21:34;1.50;99.90
23683;DHT22;24897;53.514;10.482;2023-02-28T00:24:19;1.50;99.90
23683;DHT22;24897;53.514;10.482;2023-02-28T00:27:04;1.40;99.90
23683;DHT22;24897;53.514;10.482;2023-02-28T00:29:48;1.40;99.90
23683;DHT22;24897;53.514;10.482;2023-02-28T00:32:32;1.30;99.90
23683;DHT22;24897;53.514;10.482;2023-02-28T00:35:18;1.20;99.90
23683;DHT22;24897;53.514;10.482;2023-02-28T00:38:02;2.80;99.90
23683;DHT22;24897;53.514;10.482;2023-02-28T00:40:47;1.20;99.90
23683;DHT22;24897;53.514;10.482;2023-02-28T00:43:36;1.20;99.90
23683;DHT22;24897;53.514;10.482;2023-02-28T00:46:21;1.20;99.90
23683;DHT22;24897;53.514;10.482;2023-02-28T00:49:05;1.10;99.90
23683;DHT22;24897;53.514;10.482;2023-02-28T00:51:49;1.20;99.90
23683;DHT22;24897;53.514;10.482;2023-02-28T00:54:33;1.10;99.90
23683;DHT22;24897;53.514;10.482;2023-02-28T00:57:17;1.00;99.90
23683;DHT22;24897;53.514;10.482;2023-02-28T01:00:02;1.00;99.90
23683;DHT22;24897;53.514;10.482;2023-02-28T01:02:47;0.90;99.90
23683;DHT22;24897;53.514;10.482;2023-02-28T01:05:31;0.90;99.90
23683;DHT22;24897;53.514;10.482;2023-02-28T01:08:15;0.90;99.90
23683;DHT22;24897;53.514;10.482;2023-02-28T01:11:08;0.90;99.90
23683;DHT22;24897;53.514;10.482;2023-02-28T01:13:52;0.90;99.90
23683;DHT22;24897;53.514;10.482;2023-02-28T01:16:37;0.90;99.90
23683;DHT22;24897;53.514;10.482;2023-02-28T01:19:21;0.90;99.90
23683;DHT22;24897;53.514;10.482;2023-02-28T01:22:05;0.90;99.90
23683;DHT22;24897;53.514;10.482;2023-02-28T01:24:50;0.80;99.90
23683;DHT22;24897;53.514;10.482;2023-02-28T01:27:34;0.80;99.90
23683;DHT22;24897;53.514;10.482;2023-02-28T01:30:19;0.80;99.90
23683;DHT22;24897;53.514;10.482;2023-02-28T01:33:04;0.70;99.90
23683;DHT22;24897;53.514;10.482;2023-02-28T01:35:48;0.70;99.90
23683;DHT22;24897;53.514;10.482;2023-02-28T01:38:33;0.60;99.90
23683;DHT22;24897;53.514;10.482;2023-02-28T01:41:23;0.50;99.90
23683;DHT22;24897;53.514;10.482;2023-02-28T01:47:34;0.40;99.90
23683;DHT22;24897;53.514;10.482;2023-02-28T01:50:23;0.40;99.90
23683;DHT22;24897;53.514;10.482;2023-02-28T01:53:13;0.30;99.90
23683;DHT22;24897;53.514;10.482;2023-02-28T01:55:58;0.30;99.90
23683;DHT22;24897;53.514;10.482;2023-02-28T01:58:42;0.30;99.90
23683;DHT22;24897;53.514;10.482;2023-02-28T02:01:27;0.30;99.90
23683;DHT22;24897;53.514;10.482;2023-02-28T02:04:13;0.20;99.90
23683;DHT22;24897;53.514;10.482;2023-02-28T02:06:58;0.20;99.90
23683;DHT22;24897;53.514;10.482;2023-02-28T02:09:43;0.20;99.90
23683;DHT22;24897;53.514;10.482;2023-02-28T02:16:17;0.10;99.90
23683;DHT22;24897;53.514;10.482;2023-02-28T02:19:44;0.00;99.90
23683;DHT22;24897;53.514;10.482;2023-02-28T02:28:39;-0.10;99.90
23683;DHT22;24897;53.514;10.482;2023-02-28T02:35:32;-0.10;99.90
23683;DHT22;24897;53.514;10.482;2023-02-28T02:38:31;-0.10;99.90
23683;DHT22;24897;53.514;10.482;2023-02-28T02:41:45;-0.20;99.90
23683;DHT22;24897;53.514;10.482;2023-02-28T02:44:40;-0.20;99.90
23683;DHT22;24897;53.514;10.482;2023-02-28T02:47:30;-0.20;99.90
23683;DHT22;24897;53.514;10.482;2023-02-28T02:50:25;-0.20;99.90
23683;DHT22;24897;53.514;10.482;2023-02-28T02:53:11;-0.20;99.90
23683;DHT22;24897;53.514;10.482;2023-02-28T02:55:58;-0.20;99.90
23683;DHT22;24897;53.514;10.482;2023-02-28T02:58:44;-0.20;99.90
23683;DHT22;24897;53.514;10.482;2023-02-28T03:01:30;-0.20;99.90
23683;DHT22;24897;53.514;10.482;2023-02-28T03:04:21;-0.20;99.90
23683;DHT22;24897;53.514;10.482;2023-02-28T03:07:06;-0.20;99.90
23683;DHT22;24897;53.514;10.482;2023-02-28T03:09:55;-0.30;99.90
23683;DHT22;24897;53.514;10.482;2023-02-28T03:12:44;-0.40;99.90
23683;DHT22;24897;53.514;10.482;2023-02-28T03:15:41;-0.40;99.90
23683;DHT22;24897;53.514;10.482;2023-02-28T03:25:06;-0.50;99.90
23683;DHT22;24897;53.514;10.482;2023-02-28T03:33:49;-0.60;99.90
23683;DHT22;24897;53.514;10.482;2023-02-28T03:36:43;-0.60;99.90
23683;DHT22;24897;53.514;10.482;2023-02-28T03:39:38;-0.60;99.90
23683;DHT22;24897;53.514;10.482;2023-02-28T03:42:27;-0.60;99.90
23683;DHT22;24897;53.514;10.482;2023-02-28T03:45:22;-0.70;99.90
23683;DHT22;24897;53.514;10.482;2023-02-28T03:48:25;-0.70;99.90
23683;DHT22;24897;53.514;10.482;2023-02-28T03:51:16;-0.80;99.90
23683;DHT22;24897;53.514;10.482;2023-02-28T03:54:17;-0.80;99.90
23683;DHT22;24897;53.514;10.482;2023-02-28T03:57:09;-0.80;99.90
23683;DHT22;24897;53.514;10.482;2023-02-28T04:00:03;-0.80;99.90
23683;DHT22;24897;53.514;10.482;2023-02-28T04:02:50;-0.90;99.90
23683;DHT22;24897;53.514;10.482;2023-02-28T04:05:55;-0.90;99.90
23683;DHT22;24897;53.514;10.482;2023-02-28T04:08:41;-0.90;99.90
23683;DHT22;24897;53.514;10.482;2023-02-28T04:11:46;-0.90;99.90
23683;DHT22;24897;53.514;10.482;2023-02-28T04:14:32;-1.00;99.90
23683;DHT22;24897;53.514;10.482;2023-02-28T04:17:16;-1.00;99.90
23683;DHT22;24897;53.514;10.482;2023-02-28T04:20:01;-1.10;99.90
23683;DHT22;24897;53.514;10.482;2023-02-28T04:22:45;-1.10;99.90
23683;DHT22;24897;53.514;10.482;2023-02-28T04:25:29;-1.10;99.90
23683;DHT22;24897;53.514;10.482;2023-02-28T04:28:13;-1.10;99.90
23683;DHT22;24897;53.514;10.482;2023-02-28T04:30:58;-1.20;99.90
23683;DHT22;24897;53.514;10.482;2023-02-28T04:33:43;-1.20;99.90
23683;DHT22;24897;53.514;10.482;2023-02-28T04:36:28;-1.20;99.90
23683;DHT22;24897;53.514;10.482;2023-02-28T04:39:12;-1.20;99.90
23683;DHT22;24897;53.514;10.482;2023-02-28T04:41:56;-1.30;99.90
23683;DHT22;24897;53.514;10.482;2023-02-28T04:44:40;-1.30;99.90
23683;DHT22;24897;53.514;10.482;2023-02-28T04:47:25;-1.20;99.90
23683;DHT22;24897;53.514;10.482;2023-02-28T04:50:09;-1.20;99.90
23683;DHT22;24897;53.514;10.482;2023-02-28T04:52:54;-1.30;99.90
23683;DHT22;24897;53.514;10.482;2023-02-28T04:55:38;-1.30;99.90
23683;DHT22;24897;53.514;10.482;2023-02-28T04:58:24;-1.30;99.90
23683;DHT22;24897;53.514;10.482;2023-02-28T05:01:26;-1.40;99.90
23683;DHT22;24897;53.514;10.482;2023-02-28T05:04:11;-1.40;99.90
23683;DHT22;24897;53.514;10.482;2023-02-28T05:06:55;-1.40;99.90
23683;DHT22;24897;53.514;10.482;2023-02-28T05:09:40;-1.40;99.90
23683;DHT22;24897;53.514;10.482;2023-02-28T05:12:24;-1.50;99.90
23683;DHT22;24897;53.514;10.482;2023-02-28T05:15:13;-1.50;99.90
23683;DHT22;24897;53.514;10.482;2023-02-28T05:17:57;-1.50;99.90
23683;DHT22;24897;53.514;10.482;2023-02-28T05:20:42;-1.60;99.90
23683;DHT22;24897;53.514;10.482;2023-02-28T05:23:26;-1.60;99.90
23683;DHT22;24897;53.514;10.482;2023-02-28T05:26:11;-1.60;99.90
23683;DHT22;24897;53.514;10.482;2023-02-28T05:28:56;-1.60;99.90
23683;DHT22;24897;53.514;10.482;2023-02-28T05:31:40;-1.60;99.90
23683;DHT22;24897;53.514;10.482;2023-02-28T05:34:24;-1.60;99.90
23683;DHT22;24897;53.514;10.482;2023-02-28T05:37:12;-1.60;99.90
23683;DHT22;24897;53.514;10.482;2023-02-28T05:39:56;-1.60;99.90
23683;DHT22;24897;53.514;10.482;2023-02-28T05:42:41;-1.70;99.90
23683;DHT22;24897;53.514;10.482;2023-02-28T05:45:25;-1.70;99.90
23683;DHT22;24897;53.514;10.482;2023-02-28T05:48:10;-1.70;99.90
23683;DHT22;24897;53.514;10.482;2023-02-28T05:50:54;-1.70;99.90
23683;DHT22;24897;53.514;10.482;2023-02-28T05:53:41;-1.80;99.90
23683;DHT22;24897;53.514;10.482;2023-02-28T05:56:25;-1.80;99.90
23683;DHT22;24897;53.514;10.482;2023-02-28T05:59:09;-1.80;99.90
23683;DHT22;24897;53.514;10.482;2023-02-28T06:01:54;-1.80;99.90
23683;DHT22;24897;53.514;10.482;2023-02-28T06:04:39;-1.90;99.90
23683;DHT22;24897;53.514;10.482;2023-02-28T06:07:24;-1.80;99.90
23683;DHT22;24897;53.514;10.482;2023-02-28T06:10:10;-1.80;99.90
23683;DHT22;24897;53.514;10.482;2023-02-28T06:12:55;-1.80;99.90
23683;DHT22;24897;53.514;10.482;2023-02-28T06:15:39;-1.80;99.90
23683;DHT22;24897;53.514;10.482;2023-02-28T06:18:23;-1.90;99.90
23683;DHT22;24897;53.514;10.482;2023-02-28T06:21:07;-1.90;99.90
23683;DHT22;24897;53.514;10.482;2023-02-28T06:23:53;-1.90;99.90
23683;DHT22;24897;53.514;10.482;2023-02-28T06:26:37;-1.90;99.90
23683;DHT22;24897;53.514;10.482;2023-02-28T06:29:22;-1.90;99.90
23683;DHT22;24897;53.514;10.482;2023-02-28T06:32:06;-1.80;99.90
23683;DHT22;24897;53.514;10.482;2023-02-28T06:34:51;-1.80;99.90
23683;DHT22;24897;53.514;10.482;2023-02-28T06:37:36;-1.70;99.90
23683;DHT22;24897;53.514;10.482;2023-02-28T06:40:20;-1.60;99.90
23683;DHT22;24897;53.514;10.482;2023-02-28T06:43:04;-1.60;99.90
23683;DHT22;24897;53.514;10.482;2023-02-28T06:45:49;-1.60;99.90
23683;DHT22;24897;53.514;10.482;2023-02-28T06:48:34;-1.60;99.90
23683;DHT22;24897;53.514;10.482;2023-02-28T06:51:20;-1.60;99.90
23683;DHT22;24897;53.514;10.482;2023-02-28T06:54:06;-1.50;99.90
23683;DHT22;24897;53.514;10.482;2023-02-28T06:56:53;-1.40;99.90
23683;DHT22;24897;53.514;10.482;2023-02-28T06:59:38;-1.40;99.90
23683;DHT22;24897;53.514;10.482;2023-02-28T07:02:22;-1.30;99.90
23683;DHT22;24897;53.514;10.482;2023-02-28T07:05:06;-1.20;99.90
23683;DHT22;24897;53.514;10.482;2023-02-28T07:07:51;-1.10;99.90
23683;DHT22;24897;53.514;10.482;2023-02-28T07:10:40;-1.10;99.90
23683;DHT22;24897;53.514;10.482;2023-02-28T07:13:24;-0.90;99.90
23683;DHT22;24897;53.514;10.482;2023-02-28T07:16:10;-0.90;99.90
23683;DHT22;24897;53.514;10.482;2023-02-28T07:18:55;-0.80;99.90
23683;DHT22;24897;53.514;10.482;2023-02-28T07:21:40;-0.70;99.90
23683;DHT22;24897;53.514;10.482;2023-02-28T07:24:24;-0.60;99.90
23683;DHT22;24897;53.514;10.482;2023-02-28T07:27:12;-0.50;99.90
23683;DHT22;24897;53.514;10.482;2023-02-28T07:29:56;-0.40;99.90
23683;DHT22;24897;53.514;10.482;2023-02-28T07:32:40;-0.30;99.90
23683;DHT22;24897;53.514;10.482;2023-02-28T07:35:25;-0.20;99.90
23683;DHT22;24897;53.514;10.482;2023-02-28T07:38:09;-0.10;99.90
23683;DHT22;24897;53.514;10.482;2023-02-28T07:40:54;0.00;99.90
23683;DHT22;24897;53.514;10.482;2023-02-28T07:43:38;0.10;99.90
23683;DHT22;24897;53.514;10.482;2023-02-28T07:46:22;0.20;99.90
23683;DHT22;24897;53.514;10.482;2023-02-28T07:49:06;0.30;99.90
23683;DHT22;24897;53.514;10.482;2023-02-28T07:51:50;0.40;99.90
23683;DHT22;24897;53.514;10.482;2023-02-28T07:54:34;0.60;99.90
23683;DHT22;24897;53.514;10.482;2023-02-28T07:57:18;0.70;99.90
23683;DHT22;24897;53.514;10.482;2023-02-28T08:00:04;0.80;99.90
23683;DHT22;24897;53.514;10.482;2023-02-28T08:02:49;1.00;99.90
23683;DHT22;24897;53.514;10.482;2023-02-28T08:05:38;1.10;99.90
23683;DHT22;24897;53.514;10.482;2023-02-28T08:08:22;1.20;99.90
23683;DHT22;24897;53.514;10.482;2023-02-28T08:11:07;1.40;99.90
23683;DHT22;24897;53.514;10.482;2023-02-28T08:13:51;1.50;99.90
23683;DHT22;24897;53.514;10.482;2023-02-28T08:16:35;1.70;99.90
23683;DHT22;24897;53.514;10.482;2023-02-28T08:19:19;2.10;99.90
23683;DHT22;24897;53.514;10.482;2023-02-28T08:22:03;2.20;99.90
23683;DHT22;24897;53.514;10.482;2023-02-28T08:24:48;2.50;99.90
23683;DHT22;24897;53.514;10.482;2023-02-28T08:27:33;3.00;99.90
23683;DHT22;24897;53.514;10.482;2023-02-28T08:30:17;3.50;99.90
23683;DHT22;24897;53.514;10.482;2023-02-28T08:33:02;4.20;99.90
23683;DHT22;24897;53.514;10.482;2023-02-28T08:35:46;4.70;99.90
23683;DHT22;24897;53.514;10.482;2023-02-28T08:38:30;5.20;99.90
23683;DHT22;24897;53.514;10.482;2023-02-28T08:41:14;5.70;99.90
23683;DHT22;24897;53.514;10.482;2023-02-28T08:43:58;6.20;99.90
23683;DHT22;24897;53.514;10.482;2023-02-28T08:46:44;6.80;99.90
23683;DHT22;24897;53.514;10.482;2023-02-28T08:49:28;7.70;99.90
23683;DHT22;24897;53.514;10.482;2023-02-28T08:52:13;8.40;99.90
23683;DHT22;24897;53.514;10.482;2023-02-28T08:54:57;9.10;99.90
23683;DHT22;24897;53.514;10.482;2023-02-28T08:57:41;9.90;99.90
23683;DHT22;24897;53.514;10.482;2023-02-28T09:00:25;10.60;99.90
23683;DHT22;24897;53.514;10.482;2023-02-28T09:03:09;11.60;99.90
23683;DHT22;24897;53.514;10.482;2023-02-28T09:06:01;11.40;99.90
23683;DHT22;24897;53.514;10.482;2023-02-28T09:08:45;11.30;99.90
23683;DHT22;24897;53.514;10.482;2023-02-28T09:11:30;11.10;99.90
23683;DHT22;24897;53.514;10.482;2023-02-28T09:14:14;10.70;99.90
23683;DHT22;24897;53.514;10.482;2023-02-28T09:16:58;10.80;99.90
23683;DHT22;24897;53.514;10.482;2023-02-28T09:19:42;10.70;99.90
23683;DHT22;24897;53.514;10.482;2023-02-28T09:22:27;10.60;99.90
23683;DHT22;24897;53.514;10.482;2023-02-28T09:25:11;10.30;99.90
23683;DHT22;24897;53.514;10.482;2023-02-28T09:27:55;10.60;99.90
23683;DHT22;24897;53.514;10.482;2023-02-28T09:30:40;11.00;99.90
23683;DHT22;24897;53.514;10.482;2023-02-28T09:33:25;11.50;99.90
23683;DHT22;24897;53.514;10.482;2023-02-28T09:36:09;11.00;99.90
23683;DHT22;24897;53.514;10.482;2023-02-28T09:38:53;11.90;99.90
23683;DHT22;24897;53.514;10.482;2023-02-28T09:41:49;12.60;99.90
23683;DHT22;24897;53.514;10.482;2023-02-28T09:44:41;12.60;99.90
23683;DHT22;24897;53.514;10.482;2023-02-28T09:47:34;13.00;99.90
23683;DHT22;24897;53.514;10.482;2023-02-28T09:56:10;12.50;99.90
23683;DHT22;24897;53.514;10.482;2023-02-28T09:59:18;12.60;99.90
23683;DHT22;24897;53.514;10.482;2023-02-28T10:05:20;11.90;99.90
23683;DHT22;24897;53.514;10.482;2023-02-28T10:10:58;13.30;99.90
23683;DHT22;24897;53.514;10.482;2023-02-28T10:20:05;13.40;99.90
23683;DHT22;24897;53.514;10.482;2023-02-28T10:23:17;12.40;99.90
23683;DHT22;24897;53.514;10.482;2023-02-28T10:26:14;12.30;99.90
23683;DHT22;24897;53.514;10.482;2023-02-28T10:29:00;13.10;99.90
23683;DHT22;24897;53.514;10.482;2023-02-28T10:31:44;13.20;99.90
23683;DHT22;24897;53.514;10.482;2023-02-28T10:34:28;13.30;99.90
23683;DHT22;24897;53.514;10.482;2023-02-28T10:37:13;13.70;99.90
23683;DHT22;24897;53.514;10.482;2023-02-28T10:39:58;13.80;99.90
23683;DHT22;24897;53.514;10.482;2023-02-28T10:42:42;14.10;99.90
23683;DHT22;24897;53.514;10.482;2023-02-28T10:45:28;13.90;99.90
23683;DHT22;24897;53.514;10.482;2023-02-28T10:50:58;13.20;99.90
23683;DHT22;24897;53.514;10.482;2023-02-28T10:56:28;12.80;99.90
23683;DHT22;24897;53.514;10.482;2023-02-28T10:59:26;13.20;99.90
23683;DHT22;24897;53.514;10.482;2023-02-28T11:02:32;14.00;99.90
23683;DHT22;24897;53.514;10.482;2023-02-28T11:05:31;13.90;99.90
23683;DHT22;24897;53.514;10.482;2023-02-28T11:08:17;13.40;99.90
23683;DHT22;24897;53.514;10.482;2023-02-28T11:11:05;13.30;99.90
23683;DHT22;24897;53.514;10.482;2023-02-28T11:13:53;13.10;99.90
23683;DHT22;24897;53.514;10.482;2023-02-28T11:16:38;13.90;99.90
23683;DHT22;24897;53.514;10.482;2023-02-28T11:19:25;14.30;99.90
23683;DHT22;24897;53.514;10.482;2023-02-28T11:22:22;13.80;99.90
23683;DHT22;24897;53.514;10.482;2023-02-28T11:25:13;13.70;99.90
23683;DHT22;24897;53.514;10.482;2023-02-28T11:28:02;13.60;99.90
23683;DHT22;24897;53.514;10.482;2023-02-28T11:34:00;13.40;99.90
23683;DHT22;24897;53.514;10.482;2023-02-28T11:36:44;13.40;99.90
23683;DHT22;24897;53.514;10.482;2023-02-28T11:39:29;13.50;99.90
23683;DHT22;24897;53.514;10.482;2023-02-28T11:48:27;13.30;99.90
23683;DHT22;24897;53.514;10.482;2023-02-28T11:54:19;13.30;99.90
23683;DHT22;24897;53.514;10.482;2023-02-28T11:57:32;13.60;99.90
23683;DHT22;24897;53.514;10.482;2023-02-28T12:00:57;14.00;99.90
23683;DHT22;24897;53.514;10.482;2023-02-28T12:12:52;14.00;99.90
23683;DHT22;24897;53.514;10.482;2023-02-28T12:28:43;14.20;99.90
23683;DHT22;24897;53.514;10.482;2023-02-28T12:31:34;14.10;99.90
23683;DHT22;24897;53.514;10.482;2023-02-28T12:34:24;14.20;99.90
23683;DHT22;24897;53.514;10.482;2023-02-28T12:37:14;14.20;99.90
23683;DHT22;24897;53.514;10.482;2023-02-28T12:40:09;14.00;99.90
23683;DHT22;24897;53.514;10.482;2023-02-28T12:43:04;13.80;99.90
23683;DHT22;24897;53.514;10.482;2023-02-28T12:46:14;13.80;99.90
23683;DHT22;24897;53.514;10.482;2023-02-28T12:49:09;14.00;99.90
23683;DHT22;24897;53.514;10.482;2023-02-28T12:51:55;13.90;99.90
23683;DHT22;24897;53.514;10.482;2023-02-28T13:01:06;13.50;99.90
23683;DHT22;24897;53.514;10.482;2023-02-28T13:09:40;13.60;99.90
23683;DHT22;24897;53.514;10.482;2023-02-28T13:12:25;13.60;99.90
23683;DHT22;24897;53.514;10.482;2023-02-28T13:15:25;13.70;99.90
23683;DHT22;24897;53.514;10.482;2023-02-28T13:18:28;13.80;99.90
23683;DHT22;24897;53.514;10.482;2023-02-28T13:21:28;13.70;99.90
23683;DHT22;24897;53.514;10.482;2023-02-28T13:24:49;13.60;99.90
23683;DHT22;24897;53.514;10.482;2023-02-28T13:27:38;13.80;99.90
23683;DHT22;24897;53.514;10.482;2023-02-28T13:36:41;14.00;99.90
23683;DHT22;24897;53.514;10.482;2023-02-28T13:42:35;14.60;99.90
23683;DHT22;24897;53.514;10.482;2023-02-28T13:45:28;15.00;99.90
23683;DHT22;24897;53.514;10.482;2023-02-28T13:48:26;14.90;99.90
23683;DHT22;24897;53.514;10.482;2023-02-28T13:54:31;14.70;99.90
23683;DHT22;24897;53.514;10.482;2023-02-28T13:57:30;15.10;99.90
23683;DHT22;24897;53.514;10.482;2023-02-28T14:00:34;15.10;99.90
23683;DHT22;24897;53.514;10.482;2023-02-28T14:06:33;15.30;99.90
23683;DHT22;24897;53.514;10.482;2023-02-28T14:09:26;15.00;99.90
23683;DHT22;24897;53.514;10.482;2023-02-28T14:15:40;14.30;99.90
23683;DHT22;24897;53.514;10.482;2023-02-28T14:21:27;13.70;99.90
23683;DHT22;24897;53.514;10.482;2023-02-28T14:28:22;13.20;99.90
23683;DHT22;24897;53.514;10.482;2023-02-28T14:31:09;12.70;99.90
23683;DHT22;24897;53.514;10.482;2023-02-28T14:36:47;12.10;99.90
23683;DHT22;24897;53.514;10.482;2023-02-28T14:39:32;12.00;99.90
23683;DHT22;24897;53.514;10.482;2023-02-28T14:42:36;11.90;99.90
23683;DHT22;24897;53.514;10.482;2023-02-28T14:45:23;11.40;99.90
23683;DHT22;24897;53.514;10.482;2023-02-28T14:48:09;11.10;99.90
23683;DHT22;24897;53.514;10.482;2023-02-28T14:50:56;10.70;99.90
23683;DHT22;24897;53.514;10.482;2023-02-28T14:53:41;10.40;99.90
23683;DHT22;24897;53.514;10.482;2023-02-28T14:56:39;10.30;99.90
23683;DHT22;24897;53.514;10.482;2023-02-28T14:59:27;10.00;99.90
23683;DHT22;24897;53.514;10.482;2023-02-28T15:02:18;9.90;99.90
23683;DHT22;24897;53.514;10.482;2023-02-28T15:08:14;9.80;99.90
23683;DHT22;24897;53.514;10.482;2023-02-28T15:11:02;9.60;99.90
23683;DHT22;24897;53.514;10.482;2023-02-28T15:13:50;9.50;99.90
23683;DHT22;24897;53.514;10.482;2023-02-28T15:16:40;9.50;99.90
23683;DHT22;24897;53.514;10.482;2023-02-28T15:19:37;9.40;99.90
23683;DHT22;24897;53.514;10.482;2023-02-28T15:22:33;9.40;99.90
23683;DHT22;24897;53.514;10.482;2023-02-28T15:25:20;9.50;99.90
23683;DHT22;24897;53.514;10.482;2023-02-28T15:28:05;9.40;99.90
23683;DHT22;24897;53.514;10.482;2023-02-28T15:33:55;9.60;99.90
23683;DHT22;24897;53.514;10.482;2023-02-28T15:36:40;9.30;99.90
23683;DHT22;24897;53.514;10.482;2023-02-28T15:39:27;9.20;99.90
23683;DHT22;24897;53.514;10.482;2023-02-28T15:42:12;9.00;99.90
23683;DHT22;24897;53.514;10.482;2023-02-28T15:44:57;10.00;99.90
23683;DHT22;24897;53.514;10.482;2023-02-28T15:47:45;8.80;99.90
23683;DHT22;24897;53.514;10.482;2023-02-28T15:50:30;8.70;99.90
23683;DHT22;24897;53.514;10.482;2023-02-28T15:53:25;8.60;99.90
23683;DHT22;24897;53.514;10.482;2023-02-28T15:56:24;8.60;99.90
23683;DHT22;24897;53.514;10.482;2023-02-28T15:59:16;8.50;99.90
23683;DHT22;24897;53.514;10.482;2023-02-28T16:02:16;8.50;99.90
23683;DHT22;24897;53.514;10.482;2023-02-28T16:07:57;8.40;99.90
23683;DHT22;24897;53.514;10.482;2023-02-28T16:10:42;8.30;99.90
23683;DHT22;24897;53.514;10.482;2023-02-28T16:13:26;8.30;99.90
23683;DHT22;24897;53.514;10.482;2023-02-28T16:16:18;8.20;99.90
23683;DHT22;24897;53.514;10.482;2023-02-28T16:19:03;8.00;99.90
23683;DHT22;24897;53.514;10.482;2023-02-28T16:21:48;8.00;99.90
23683;DHT22;24897;53.514;10.482;2023-02-28T16:24:32;8.00;99.90
23683;DHT22;24897;53.514;10.482;2023-02-28T16:27:33;7.90;99.90
23683;DHT22;24897;53.514;10.482;2023-02-28T16:30:22;7.90;99.90
23683;DHT22;24897;53.514;10.482;2023-02-28T16:33:07;7.80;99.90
23683;DHT22;24897;53.514;10.482;2023-02-28T16:35:52;7.80;99.90
23683;DHT22;24897;53.514;10.482;2023-02-28T16:38:36;7.80;99.90
23683;DHT22;24897;53.514;10.482;2023-02-28T16:41:22;7.60;99.90
23683;DHT22;24897;53.514;10.482;2023-02-28T16:44:12;7.70;99.90
23683;DHT22;24897;53.514;10.482;2023-02-28T16:46:57;7.60;99.90
23683;DHT22;24897;53.514;10.482;2023-02-28T16:49:43;7.40;99.90
23683;DHT22;24897;53.514;10.482;2023-02-28T16:52:27;7.30;99.90
23683;DHT22;24897;53.514;10.482;2023-02-28T16:55:12;7.20;99.90
23683;DHT22;24897;53.514;10.482;2023-02-28T16:57:59;7.00;99.90
23683;DHT22;24897;53.514;10.482;2023-02-28T17:00:43;6.80;99.90
23683;DHT22;24897;53.514;10.482;2023-02-28T17:03:28;6.70;99.90
23683;DHT22;24897;53.514;10.482;2023-02-28T17:06:19;6.60;99.90
23683;DHT22;24897;53.514;10.482;2023-02-28T17:09:08;6.60;99.90
23683;DHT22;24897;53.514;10.482;2023-02-28T17:11:59;6.40;99.90
23683;DHT22;24897;53.514;10.482;2023-02-28T17:14:43;6.30;99.90
23683;DHT22;24897;53.514;10.482;2023-02-28T17:17:28;6.20;99.90
23683;DHT22;24897;53.514;10.482;2023-02-28T17:20:21;6.00;99.90
23683;DHT22;24897;53.514;10.482;2023-02-28T17:23:10;5.90;99.90
23683;DHT22;24897;53.514;10.482;2023-02-28T17:25:54;5.80;99.90
23683;DHT22;24897;53.514;10.482;2023-02-28T17:28:38;5.60;99.90
23683;DHT22;24897;53.514;10.482;2023-02-28T17:31:24;5.50;99.90
23683;DHT22;24897;53.514;10.482;2023-02-28T17:34:08;5.20;99.90
23683;DHT22;24897;53.514;10.482;2023-02-28T17:36:53;5.10;99.90
23683;DHT22;24897;53.514;10.482;2023-02-28T17:39:37;4.90;99.90
23683;DHT22;24897;53.514;10.482;2023-02-28T17:42:21;4.80;99.90
23683;DHT22;24897;53.514;10.482;2023-02-28T17:45:06;4.60;99.90
23683;DHT22;24897;53.514;10.482;2023-02-28T17:47:50;4.40;99.90
23683;DHT22;24897;53.514;10.482;2023-02-28T17:50:34;4.30;99.90
23683;DHT22;24897;53.514;10.482;2023-02-28T17:53:19;4.20;99.90
23683;DHT22;24897;53.514;10.482;2023-02-28T17:56:03;4.10;99.90
23683;DHT22;24897;53.514;10.482;2023-02-28T17:58:49;3.90;99.90
23683;DHT22;24897;53.514;10.482;2023-02-28T18:01:33;3.80;99.90
23683;DHT22;24897;53.514;10.482;2023-02-28T18:04:17;3.70;99.90
23683;DHT22;24897;53.514;10.482;2023-02-28T18:07:01;3.70;99.90
23683;DHT22;24897;53.514;10.482;2023-02-28T18:09:46;3.80;99.90
23683;DHT22;24897;53.514;10.482;2023-02-28T18:12:30;3.60;99.90
23683;DHT22;24897;53.514;10.482;2023-02-28T18:15:17;3.40;99.90
23683;DHT22;24897;53.514;10.482;2023-02-28T18:18:01;3.30;99.90
23683;DHT22;24897;53.514;10.482;2023-02-28T18:20:47;3.40;99.90
23683;DHT22;24897;53.514;10.482;2023-02-28T18:23:34;3.40;99.90
23683;DHT22;24897;53.514;10.482;2023-02-28T18:26:19;3.40;99.90
23683;DHT22;24897;53.514;10.482;2023-02-28T18:29:07;3.40;99.90
23683;DHT22;24897;53.514;10.482;2023-02-28T18:31:52;3.40;99.90
23683;DHT22;24897;53.514;10.482;2023-02-28T18:34:37;3.40;99.90
23683;DHT22;24897;53.514;10.482;2023-02-28T18:37:21;3.30;99.90
23683;DHT22;24897;53.514;10.482;2023-02-28T18:40:06;3.20;99.90
23683;DHT22;24897;53.514;10.482;2023-02-28T18:42:51;3.10;99.90
23683;DHT22;24897;53.514;10.482;2023-02-28T18:45:37;3.00;99.90
23683;DHT22;24897;53.514;10.482;2023-02-28T18:48:22;3.00;99.90
23683;DHT22;24897;53.514;10.482;2023-02-28T18:53:52;3.00;99.90
23683;DHT22;24897;53.514;10.482;2023-02-28T18:56:37;2.80;99.90
23683;DHT22;24897;53.514;10.482;2023-02-28T18:59:21;2.70;99.90
23683;DHT22;24897;53.514;10.482;2023-02-28T19:02:05;2.70;99.90
23683;DHT22;24897;53.514;10.482;2023-02-28T19:04:50;2.60;99.90
23683;DHT22;24897;53.514;10.482;2023-02-28T19:07:35;2.50;99.90
23683;DHT22;24897;53.514;10.482;2023-02-28T19:10:19;2.50;99.90
23683;DHT22;24897;53.514;10.482;2023-02-28T19:13:03;2.50;99.90
23683;DHT22;24897;53.514;10.482;2023-02-28T19:15:49;2.50;99.90
23683;DHT22;24897;53.514;10.482;2023-02-28T19:18:33;2.50;99.90
23683;DHT22;24897;53.514;10.482;2023-02-28T19:21:19;2.50;99.90
23683;DHT22;24897;53.514;10.482;2023-02-28T19:24:04;2.40;99.90
23683;DHT22;24897;53.514;10.482;2023-02-28T19:26:48;2.30;99.90
23683;DHT22;24897;53.514;10.482;2023-02-28T19:29:32;2.20;99.90
23683;DHT22;24897;53.514;10.482;2023-02-28T19:32:18;2.20;99.90
23683;DHT22;24897;53.514;10.482;2023-02-28T19:35:03;2.20;99.90
23683;DHT22;24897;53.514;10.482;2023-02-28T19:37:48;2.10;99.90
23683;DHT22;24897;53.514;10.482;2023-02-28T19:40:33;2.10;99.90
23683;DHT22;24897;53.514;10.482;2023-02-28T19:43:17;2.00;99.90
23683;DHT22;24897;53.514;10.482;2023-02-28T19:46:02;2.00;99.90
23683;DHT22;24897;53.514;10.482;2023-02-28T19:48:46;1.90;99.90
23683;DHT22;24897;53.514;10.482;2023-02-28T19:51:31;1.80;99.90